sensor_id;sensor_type;location;lat;lon;timestamp;temperature;humidity
52669;DHT22;59898;52.786;6.892;2022-12-29T00:01:15;9.90;99.90
52669;DHT22;59898;52.786;6.892;2022-12-29T00:04:36;9.90;99.90
52669;DHT22;59898;52.786;6.892;2022-12-29T00:07:57;9.90;99.90
52669;DHT22;59898;52.786;6.892;2022-12-29T00:11:20;10.00;99.90
52669;DHT22;59898;52.786;6.892;2022-12-29T00:14:41;10.00;99.90
52669;DHT22;59898;52.786;6.892;2022-12-29T00:18:20;10.10;99.90
52669;DHT22;59898;52.786;6.892;2022-12-29T00:21:40;10.10;99.90
52669;DHT22;59898;52.786;6.892;2022-12-29T00:25:20;10.10;99.90
52669;DHT22;59898;52.786;6.892;2022-12-29T00:28:59;10.20;99.90
52669;DHT22;59898;52.786;6.892;2022-12-29T00:32:38;10.20;99.90
52669;DHT22;59898;52.786;6.892;2022-12-29T00:36:38;10.20;99.90
52669;DHT22;59898;52.786;6.892;2022-12-29T00:39:59;10.30;99.90
52669;DHT22;59898;52.786;6.892;2022-12-29T00:43:38;10.20;99.90
52669;DHT22;59898;52.786;6.892;2022-12-29T00:47:17;10.20;99.90
52669;DHT22;59898;52.786;6.892;2022-12-29T00:50:37;10.20;99.90
52669;DHT22;59898;52.786;6.892;2022-12-29T00:53:58;10.20;99.90
52669;DHT22;59898;52.786;6.892;2022-12-29T00:57:19;10.20;99.90
52669;DHT22;59898;52.786;6.892;2022-12-29T01:00:39;10.30;99.90
52669;DHT22;59898;52.786;6.892;2022-12-29T01:04:00;10.30;99.90
52669;DHT22;59898;52.786;6.892;2022-12-29T01:07:21;10.30;99.90
52669;DHT22;59898;52.786;6.892;2022-12-29T01:10:42;10.40;99.90
52669;DHT22;59898;52.786;6.892;2022-12-29T01:14:02;10.50;99.90
52669;DHT22;59898;52.786;6.892;2022-12-29T01:17:23;10.50;99.90
52669;DHT22;59898;52.786;6.892;2022-12-29T01:20:44;10.50;99.90
52669;DHT22;59898;52.786;6.892;2022-12-29T01:24:05;10.60;99.90
52669;DHT22;59898;52.786;6.892;2022-12-29T01:27:26;10.60;99.90
52669;DHT22;59898;52.786;6.892;2022-12-29T01:30:46;10.70;99.90
52669;DHT22;59898;52.786;6.892;2022-12-29T01:34:07;10.70;99.90
52669;DHT22;59898;52.786;6.892;2022-12-29T01:37:28;10.70;99.90
52669;DHT22;59898;52.786;6.892;2022-12-29T01:40:48;10.70;99.90
52669;DHT22;59898;52.786;6.892;2022-12-29T01:48:09;10.70;99.90
52669;DHT22;59898;52.786;6.892;2022-12-29T01:51:31;10.80;99.90
52669;DHT22;59898;52.786;6.892;2022-12-29T01:54:55;10.70;99.90
52669;DHT22;59898;52.786;6.892;2022-12-29T01:58:17;10.80;99.90
52669;DHT22;59898;52.786;6.892;2022-12-29T02:01:39;10.80;99.90
52669;DHT22;59898;52.786;6.892;2022-12-29T02:05:05;10.80;99.90
52669;DHT22;59898;52.786;6.892;2022-12-29T02:08:29;10.80;99.90
52669;DHT22;59898;52.786;6.892;2022-12-29T02:11:50;10.90;99.90
52669;DHT22;59898;52.786;6.892;2022-12-29T02:15:12;10.90;99.90
52669;DHT22;59898;52.786;6.892;2022-12-29T02:22:34;10.90;99.90
52669;DHT22;59898;52.786;6.892;2022-12-29T02:26:13;10.90;99.90
52669;DHT22;59898;52.786;6.892;2022-12-29T02:30:03;10.80;99.90
52669;DHT22;59898;52.786;6.892;2022-12-29T02:33:54;10.90;99.90
52669;DHT22;59898;52.786;6.892;2022-12-29T02:37:25;10.90;99.90
52669;DHT22;59898;52.786;6.892;2022-12-29T02:48:10;10.80;99.90
52669;DHT22;59898;52.786;6.892;2022-12-29T02:55:08;10.60;99.90
52669;DHT22;59898;52.786;6.892;2022-12-29T02:58:30;10.60;99.90
52669;DHT22;59898;52.786;6.892;2022-12-29T03:12:51;10.30;99.90
52669;DHT22;59898;52.786;6.892;2022-12-29T03:16:45;10.30;99.90
52669;DHT22;59898;52.786;6.892;2022-12-29T03:20:14;10.30;99.90
52669;DHT22;59898;52.786;6.892;2022-12-29T03:23:37;10.20;99.90
52669;DHT22;59898;52.786;6.892;2022-12-29T03:27:01;10.20;99.90
52669;DHT22;59898;52.786;6.892;2022-12-29T03:30:23;10.20;99.90
52669;DHT22;59898;52.786;6.892;2022-12-29T03:33:45;10.20;99.90
52669;DHT22;59898;52.786;6.892;2022-12-29T03:37:12;10.20;99.90
52669;DHT22;59898;52.786;6.892;2022-12-29T03:40:34;10.10;99.90
52669;DHT22;59898;52.786;6.892;2022-12-29T03:43:55;10.20;99.90
52669;DHT22;59898;52.786;6.892;2022-12-29T03:47:16;10.20;99.90
52669;DHT22;59898;52.786;6.892;2022-12-29T03:50:37;10.20;99.90
52669;DHT22;59898;52.786;6.892;2022-12-29T03:53:58;10.20;99.90
52669;DHT22;59898;52.786;6.892;2022-12-29T03:57:18;10.30;99.90
52669;DHT22;59898;52.786;6.892;2022-12-29T04:00:39;10.30;99.90
52669;DHT22;59898;52.786;6.892;2022-12-29T04:04:00;10.30;99.90
52669;DHT22;59898;52.786;6.892;2022-12-29T04:07:20;10.30;99.90
52669;DHT22;59898;52.786;6.892;2022-12-29T04:10:41;10.30;99.90
52669;DHT22;59898;52.786;6.892;2022-12-29T04:14:02;10.30;99.90
52669;DHT22;59898;52.786;6.892;2022-12-29T04:17:23;10.40;99.90
52669;DHT22;59898;52.786;6.892;2022-12-29T04:20:44;10.40;99.90
52669;DHT22;59898;52.786;6.892;2022-12-29T04:24:20;10.40;99.90
52669;DHT22;59898;52.786;6.892;2022-12-29T04:27:41;10.40;99.90
52669;DHT22;59898;52.786;6.892;2022-12-29T04:31:03;10.50;99.90
52669;DHT22;59898;52.786;6.892;2022-12-29T04:34:24;10.50;99.90
52669;DHT22;59898;52.786;6.892;2022-12-29T04:37:44;10.50;99.90
52669;DHT22;59898;52.786;6.892;2022-12-29T04:41:05;10.50;99.90
52669;DHT22;59898;52.786;6.892;2022-12-29T04:44:26;10.50;99.90
52669;DHT22;59898;52.786;6.892;2022-12-29T04:47:46;10.50;99.90
52669;DHT22;59898;52.786;6.892;2022-12-29T04:51:07;10.60;99.90
52669;DHT22;59898;52.786;6.892;2022-12-29T04:54:28;10.50;99.90
52669;DHT22;59898;52.786;6.892;2022-12-29T04:57:48;10.50;99.90
52669;DHT22;59898;52.786;6.892;2022-12-29T05:01:09;10.50;99.90
52669;DHT22;59898;52.786;6.892;2022-12-29T05:04:30;10.50;99.90
52669;DHT22;59898;52.786;6.892;2022-12-29T05:07:50;10.50;99.90
52669;DHT22;59898;52.786;6.892;2022-12-29T05:11:11;10.50;99.90
52669;DHT22;59898;52.786;6.892;2022-12-29T05:14:32;10.50;99.90
52669;DHT22;59898;52.786;6.892;2022-12-29T05:17:52;10.50;99.90
52669;DHT22;59898;52.786;6.892;2022-12-29T05:21:13;10.50;99.90
52669;DHT22;59898;52.786;6.892;2022-12-29T05:24:34;10.50;99.90
52669;DHT22;59898;52.786;6.892;2022-12-29T05:27:54;10.50;99.90
52669;DHT22;59898;52.786;6.892;2022-12-29T05:31:15;10.50;99.90
52669;DHT22;59898;52.786;6.892;2022-12-29T05:34:36;10.50;99.90
52669;DHT22;59898;52.786;6.892;2022-12-29T05:37:56;10.50;99.90
52669;DHT22;59898;52.786;6.892;2022-12-29T05:41:17;10.50;99.90
52669;DHT22;59898;52.786;6.892;2022-12-29T05:44:38;10.50;99.90
52669;DHT22;59898;52.786;6.892;2022-12-29T05:47:58;10.50;99.90
52669;DHT22;59898;52.786;6.892;2022-12-29T05:51:19;10.40;99.90
52669;DHT22;59898;52.786;6.892;2022-12-29T05:54:40;10.40;99.90
52669;DHT22;59898;52.786;6.892;2022-12-29T05:58:00;10.40;99.90
52669;DHT22;59898;52.786;6.892;2022-12-29T06:01:21;10.40;99.90
52669;DHT22;59898;52.786;6.892;2022-12-29T06:04:42;10.40;99.90
52669;DHT22;59898;52.786;6.892;2022-12-29T06:08:03;10.40;99.90
52669;DHT22;59898;52.786;6.892;2022-12-29T06:11:23;10.40;99.90
52669;DHT22;59898;52.786;6.892;2022-12-29T06:14:44;10.40;99.90
52669;DHT22;59898;52.786;6.892;2022-12-29T06:18:05;10.40;99.90
52669;DHT22;59898;52.786;6.892;2022-12-29T06:21:25;10.40;99.90
52669;DHT22;59898;52.786;6.892;2022-12-29T06:24:46;10.30;99.90
52669;DHT22;59898;52.786;6.892;2022-12-29T06:28:07;10.40;99.90
52669;DHT22;59898;52.786;6.892;2022-12-29T06:31:27;9.70;99.90
52669;DHT22;59898;52.786;6.892;2022-12-29T06:34:48;10.40;99.90
52669;DHT22;59898;52.786;6.892;2022-12-29T06:38:09;10.30;99.90
52669;DHT22;59898;52.786;6.892;2022-12-29T06:41:29;10.30;99.90
52669;DHT22;59898;52.786;6.892;2022-12-29T06:44:50;10.30;99.90
52669;DHT22;59898;52.786;6.892;2022-12-29T06:48:11;10.30;99.90
52669;DHT22;59898;52.786;6.892;2022-12-29T06:51:31;10.30;99.90
52669;DHT22;59898;52.786;6.892;2022-12-29T06:54:52;10.30;99.90
52669;DHT22;59898;52.786;6.892;2022-12-29T06:58:13;10.30;99.90
52669;DHT22;59898;52.786;6.892;2022-12-29T07:01:33;10.30;99.90
52669;DHT22;59898;52.786;6.892;2022-12-29T07:04:56;10.20;99.90
52669;DHT22;59898;52.786;6.892;2022-12-29T07:08:16;10.20;99.90
52669;DHT22;59898;52.786;6.892;2022-12-29T07:11:37;10.20;99.90
52669;DHT22;59898;52.786;6.892;2022-12-29T07:14:58;10.20;99.90
52669;DHT22;59898;52.786;6.892;2022-12-29T07:18:18;10.10;99.90
52669;DHT22;59898;52.786;6.892;2022-12-29T07:21:39;10.10;99.90
52669;DHT22;59898;52.786;6.892;2022-12-29T07:25:00;10.10;99.90
52669;DHT22;59898;52.786;6.892;2022-12-29T07:28:20;10.10;99.90
52669;DHT22;59898;52.786;6.892;2022-12-29T07:31:41;10.10;99.90
52669;DHT22;59898;52.786;6.892;2022-12-29T07:35:02;10.00;99.90
52669;DHT22;59898;52.786;6.892;2022-12-29T07:38:22;10.00;99.90
52669;DHT22;59898;52.786;6.892;2022-12-29T07:41:43;10.00;99.90
52669;DHT22;59898;52.786;6.892;2022-12-29T07:45:04;10.00;99.90
52669;DHT22;59898;52.786;6.892;2022-12-29T07:48:25;9.90;99.90
52669;DHT22;59898;52.786;6.892;2022-12-29T07:51:46;9.90;99.90
52669;DHT22;59898;52.786;6.892;2022-12-29T07:55:07;9.90;99.90
52669;DHT22;59898;52.786;6.892;2022-12-29T07:58:28;10.00;99.90
52669;DHT22;59898;52.786;6.892;2022-12-29T08:01:49;9.90;99.90
52669;DHT22;59898;52.786;6.892;2022-12-29T08:05:09;9.90;99.90
52669;DHT22;59898;52.786;6.892;2022-12-29T08:08:30;10.00;99.90
52669;DHT22;59898;52.786;6.892;2022-12-29T08:11:51;10.00;99.90
52669;DHT22;59898;52.786;6.892;2022-12-29T08:15:12;9.90;99.90
52669;DHT22;59898;52.786;6.892;2022-12-29T08:18:33;9.90;99.90
52669;DHT22;59898;52.786;6.892;2022-12-29T08:21:53;9.90;99.90
52669;DHT22;59898;52.786;6.892;2022-12-29T08:25:14;9.90;99.90
52669;DHT22;59898;52.786;6.892;2022-12-29T08:28:35;9.90;99.90
52669;DHT22;59898;52.786;6.892;2022-12-29T08:31:55;9.90;99.90
52669;DHT22;59898;52.786;6.892;2022-12-29T08:35:16;9.90;99.90
52669;DHT22;59898;52.786;6.892;2022-12-29T08:38:37;9.90;99.90
52669;DHT22;59898;52.786;6.892;2022-12-29T08:41:57;9.90;99.90
52669;DHT22;59898;52.786;6.892;2022-12-29T08:45:18;9.90;99.90
52669;DHT22;59898;52.786;6.892;2022-12-29T08:48:39;9.90;99.90
52669;DHT22;59898;52.786;6.892;2022-12-29T08:51:59;9.90;99.90
52669;DHT22;59898;52.786;6.892;2022-12-29T08:55:20;10.00;99.90
52669;DHT22;59898;52.786;6.892;2022-12-29T08:58:41;10.00;99.90
52669;DHT22;59898;52.786;6.892;2022-12-29T09:02:01;10.20;99.90
52669;DHT22;59898;52.786;6.892;2022-12-29T09:05:22;10.30;99.90
52669;DHT22;59898;52.786;6.892;2022-12-29T09:08:43;10.30;99.90
52669;DHT22;59898;52.786;6.892;2022-12-29T09:12:04;10.30;99.90
52669;DHT22;59898;52.786;6.892;2022-12-29T09:15:25;10.80;99.90
52669;DHT22;59898;52.786;6.892;2022-12-29T09:18:46;11.80;99.90
52669;DHT22;59898;52.786;6.892;2022-12-29T09:22:07;12.40;99.90
52669;DHT22;59898;52.786;6.892;2022-12-29T09:25:28;12.50;99.90
52669;DHT22;59898;52.786;6.892;2022-12-29T09:28:49;12.10;99.90
52669;DHT22;59898;52.786;6.892;2022-12-29T09:32:10;11.50;99.90
52669;DHT22;59898;52.786;6.892;2022-12-29T09:35:30;11.10;99.90
52669;DHT22;59898;52.786;6.892;2022-12-29T09:38:53;10.80;99.90
52669;DHT22;59898;52.786;6.892;2022-12-29T09:42:27;10.60;99.90
52669;DHT22;59898;52.786;6.892;2022-12-29T09:49:43;10.20;99.90
52669;DHT22;59898;52.786;6.892;2022-12-29T09:53:20;10.00;99.90
52669;DHT22;59898;52.786;6.892;2022-12-29T09:56:44;10.00;99.90
52669;DHT22;59898;52.786;6.892;2022-12-29T10:00:13;9.90;99.90
52669;DHT22;59898;52.786;6.892;2022-12-29T10:03:48;9.90;99.90
52669;DHT22;59898;52.786;6.892;2022-12-29T10:11:00;9.90;99.90
52669;DHT22;59898;52.786;6.892;2022-12-29T10:14:36;9.90;99.90
52669;DHT22;59898;52.786;6.892;2022-12-29T10:22:17;9.90;99.90
52669;DHT22;59898;52.786;6.892;2022-12-29T10:25:43;9.90;99.90
52669;DHT22;59898;52.786;6.892;2022-12-29T10:29:06;10.00;99.90
52669;DHT22;59898;52.786;6.892;2022-12-29T10:32:38;10.00;99.90
52669;DHT22;59898;52.786;6.892;2022-12-29T10:36:13;10.00;99.90
52669;DHT22;59898;52.786;6.892;2022-12-29T10:39:50;10.00;99.90
52669;DHT22;59898;52.786;6.892;2022-12-29T10:43:25;10.10;99.90
52669;DHT22;59898;52.786;6.892;2022-12-29T10:46:58;10.00;99.90
52669;DHT22;59898;52.786;6.892;2022-12-29T10:50:21;10.00;99.90
52669;DHT22;59898;52.786;6.892;2022-12-29T10:53:46;10.00;99.90
52669;DHT22;59898;52.786;6.892;2022-12-29T10:57:18;9.90;99.90
52669;DHT22;59898;52.786;6.892;2022-12-29T11:00:42;9.80;99.90
52669;DHT22;59898;52.786;6.892;2022-12-29T11:04:12;9.70;99.90
52669;DHT22;59898;52.786;6.892;2022-12-29T11:07:35;9.70;99.90
52669;DHT22;59898;52.786;6.892;2022-12-29T11:11:03;9.70;99.90
52669;DHT22;59898;52.786;6.892;2022-12-29T11:14:31;9.70;99.90
52669;DHT22;59898;52.786;6.892;2022-12-29T11:17:56;9.70;99.90
52669;DHT22;59898;52.786;6.892;2022-12-29T11:21:36;9.60;99.90
52669;DHT22;59898;52.786;6.892;2022-12-29T11:25:10;9.60;99.90
52669;DHT22;59898;52.786;6.892;2022-12-29T11:28:33;9.50;99.90
52669;DHT22;59898;52.786;6.892;2022-12-29T11:31:56;9.50;99.90
52669;DHT22;59898;52.786;6.892;2022-12-29T11:35:42;9.50;99.90
52669;DHT22;59898;52.786;6.892;2022-12-29T11:39:03;9.50;99.90
52669;DHT22;59898;52.786;6.892;2022-12-29T11:42:36;9.40;99.90
52669;DHT22;59898;52.786;6.892;2022-12-29T11:45:57;9.40;99.90
52669;DHT22;59898;52.786;6.892;2022-12-29T11:49:23;9.40;99.90
52669;DHT22;59898;52.786;6.892;2022-12-29T11:52:46;9.40;99.90
52669;DHT22;59898;52.786;6.892;2022-12-29T11:56:14;9.40;99.90
52669;DHT22;59898;52.786;6.892;2022-12-29T11:59:43;9.30;99.90
52669;DHT22;59898;52.786;6.892;2022-12-29T12:03:21;9.30;99.90
52669;DHT22;59898;52.786;6.892;2022-12-29T12:07:10;9.30;99.90
52669;DHT22;59898;52.786;6.892;2022-12-29T12:10:34;9.30;99.90
52669;DHT22;59898;52.786;6.892;2022-12-29T12:14:20;9.40;99.90
52669;DHT22;59898;52.786;6.892;2022-12-29T12:21:37;9.60;99.90
52669;DHT22;59898;52.786;6.892;2022-12-29T12:28:34;9.80;99.90
52669;DHT22;59898;52.786;6.892;2022-12-29T12:32:18;9.90;99.90
52669;DHT22;59898;52.786;6.892;2022-12-29T12:36:09;10.00;99.90
52669;DHT22;59898;52.786;6.892;2022-12-29T12:50:20;9.90;99.90
52669;DHT22;59898;52.786;6.892;2022-12-29T13:08:49;9.20;99.90
52669;DHT22;59898;52.786;6.892;2022-12-29T13:12:46;9.20;99.90
52669;DHT22;59898;52.786;6.892;2022-12-29T13:16:40;9.20;99.90
52669;DHT22;59898;52.786;6.892;2022-12-29T13:20:15;9.30;99.90
52669;DHT22;59898;52.786;6.892;2022-12-29T13:31:18;9.40;99.90
52669;DHT22;59898;52.786;6.892;2022-12-29T13:38:35;9.50;99.90
52669;DHT22;59898;52.786;6.892;2022-12-29T13:41:59;9.50;99.90
52669;DHT22;59898;52.786;6.892;2022-12-29T13:45:24;9.50;99.90
52669;DHT22;59898;52.786;6.892;2022-12-29T13:49:01;9.50;99.90
52669;DHT22;59898;52.786;6.892;2022-12-29T13:52:40;9.60;99.90
52669;DHT22;59898;52.786;6.892;2022-12-29T13:56:14;9.60;99.90
52669;DHT22;59898;52.786;6.892;2022-12-29T13:59:48;9.60;99.90
52669;DHT22;59898;52.786;6.892;2022-12-29T14:07:02;9.50;99.90
52669;DHT22;59898;52.786;6.892;2022-12-29T14:10:33;9.40;99.90
52669;DHT22;59898;52.786;6.892;2022-12-29T14:13:59;9.40;99.90
52669;DHT22;59898;52.786;6.892;2022-12-29T14:17:30;9.40;99.90
52669;DHT22;59898;52.786;6.892;2022-12-29T14:27:57;9.30;99.90
52669;DHT22;59898;52.786;6.892;2022-12-29T14:34:39;9.30;99.90
52669;DHT22;59898;52.786;6.892;2022-12-29T14:38:17;9.30;99.90
52669;DHT22;59898;52.786;6.892;2022-12-29T14:41:38;9.40;99.90
52669;DHT22;59898;52.786;6.892;2022-12-29T14:45:06;9.40;99.90
52669;DHT22;59898;52.786;6.892;2022-12-29T14:48:39;9.40;99.90
52669;DHT22;59898;52.786;6.892;2022-12-29T14:55:54;9.40;99.90
52669;DHT22;59898;52.786;6.892;2022-12-29T14:59:16;9.40;99.90
52669;DHT22;59898;52.786;6.892;2022-12-29T15:02:45;9.40;99.90
52669;DHT22;59898;52.786;6.892;2022-12-29T15:06:10;9.40;99.90
52669;DHT22;59898;52.786;6.892;2022-12-29T15:13:22;9.40;99.90
52669;DHT22;59898;52.786;6.892;2022-12-29T15:16:43;9.40;99.90
52669;DHT22;59898;52.786;6.892;2022-12-29T15:20:20;9.40;99.90
52669;DHT22;59898;52.786;6.892;2022-12-29T15:23:43;9.40;99.90
52669;DHT22;59898;52.786;6.892;2022-12-29T15:27:05;9.40;99.90
52669;DHT22;59898;52.786;6.892;2022-12-29T15:30:26;9.40;99.90
52669;DHT22;59898;52.786;6.892;2022-12-29T15:33:50;9.40;99.90
52669;DHT22;59898;52.786;6.892;2022-12-29T15:37:19;9.40;99.90
52669;DHT22;59898;52.786;6.892;2022-12-29T15:40:43;9.40;99.90
52669;DHT22;59898;52.786;6.892;2022-12-29T15:47:54;9.40;99.90
52669;DHT22;59898;52.786;6.892;2022-12-29T15:51:31;9.40;99.90
52669;DHT22;59898;52.786;6.892;2022-12-29T15:54:53;9.30;99.90
52669;DHT22;59898;52.786;6.892;2022-12-29T15:58:25;9.30;99.90
52669;DHT22;59898;52.786;6.892;2022-12-29T16:01:46;9.30;99.90
52669;DHT22;59898;52.786;6.892;2022-12-29T16:05:16;9.20;99.90
52669;DHT22;59898;52.786;6.892;2022-12-29T16:08:39;9.20;99.90
52669;DHT22;59898;52.786;6.892;2022-12-29T16:12:05;9.20;99.90
52669;DHT22;59898;52.786;6.892;2022-12-29T16:15:29;9.20;99.90
52669;DHT22;59898;52.786;6.892;2022-12-29T16:18:50;9.10;99.90
52669;DHT22;59898;52.786;6.892;2022-12-29T16:22:30;9.10;99.90
52669;DHT22;59898;52.786;6.892;2022-12-29T16:25:52;9.00;99.90
52669;DHT22;59898;52.786;6.892;2022-12-29T16:29:19;8.90;99.90
52669;DHT22;59898;52.786;6.892;2022-12-29T16:32:46;9.00;99.90
52669;DHT22;59898;52.786;6.892;2022-12-29T16:39:50;8.90;99.90
52669;DHT22;59898;52.786;6.892;2022-12-29T16:43:20;8.90;99.90
52669;DHT22;59898;52.786;6.892;2022-12-29T16:46:55;8.90;99.90
52669;DHT22;59898;52.786;6.892;2022-12-29T16:50:19;8.80;99.90
52669;DHT22;59898;52.786;6.892;2022-12-29T16:53:48;8.80;99.90
52669;DHT22;59898;52.786;6.892;2022-12-29T16:57:10;8.80;99.90
52669;DHT22;59898;52.786;6.892;2022-12-29T17:00:36;8.80;99.90
52669;DHT22;59898;52.786;6.892;2022-12-29T17:04:00;8.80;99.90
52669;DHT22;59898;52.786;6.892;2022-12-29T17:07:26;8.80;99.90
52669;DHT22;59898;52.786;6.892;2022-12-29T17:10:49;8.70;99.90
52669;DHT22;59898;52.786;6.892;2022-12-29T17:14:47;8.70;99.90
52669;DHT22;59898;52.786;6.892;2022-12-29T17:18:10;8.70;99.90
52669;DHT22;59898;52.786;6.892;2022-12-29T17:21:32;8.70;99.90
52669;DHT22;59898;52.786;6.892;2022-12-29T17:24:54;8.70;99.90
52669;DHT22;59898;52.786;6.892;2022-12-29T17:28:22;8.70;99.90
52669;DHT22;59898;52.786;6.892;2022-12-29T17:31:44;8.60;99.90
52669;DHT22;59898;52.786;6.892;2022-12-29T17:35:05;8.60;99.90
52669;DHT22;59898;52.786;6.892;2022-12-29T17:38:30;8.60;99.90
52669;DHT22;59898;52.786;6.892;2022-12-29T17:41:53;8.60;99.90
52669;DHT22;59898;52.786;6.892;2022-12-29T17:45:16;8.60;99.90
52669;DHT22;59898;52.786;6.892;2022-12-29T17:48:37;8.60;99.90
52669;DHT22;59898;52.786;6.892;2022-12-29T17:51:58;8.60;99.90
52669;DHT22;59898;52.786;6.892;2022-12-29T17:55:21;8.60;99.90
52669;DHT22;59898;52.786;6.892;2022-12-29T17:58:42;8.60;99.90
52669;DHT22;59898;52.786;6.892;2022-12-29T18:02:03;8.40;99.90
52669;DHT22;59898;52.786;6.892;2022-12-29T18:05:27;8.60;99.90
52669;DHT22;59898;52.786;6.892;2022-12-29T18:08:48;8.60;99.90
52669;DHT22;59898;52.786;6.892;2022-12-29T18:12:30;8.60;99.90
52669;DHT22;59898;52.786;6.892;2022-12-29T18:15:52;8.60;99.90
52669;DHT22;59898;52.786;6.892;2022-12-29T18:19:13;8.40;99.90
52669;DHT22;59898;52.786;6.892;2022-12-29T18:22:34;8.30;99.90
52669;DHT22;59898;52.786;6.892;2022-12-29T18:26:13;8.10;99.90
52669;DHT22;59898;52.786;6.892;2022-12-29T18:29:35;8.00;99.90
52669;DHT22;59898;52.786;6.892;2022-12-29T18:32:55;8.00;99.90
52669;DHT22;59898;52.786;6.892;2022-12-29T18:36:17;7.90;99.90
52669;DHT22;59898;52.786;6.892;2022-12-29T18:39:38;7.90;99.90
52669;DHT22;59898;52.786;6.892;2022-12-29T18:42:59;7.90;99.90
52669;DHT22;59898;52.786;6.892;2022-12-29T18:46:20;7.90;99.90
52669;DHT22;59898;52.786;6.892;2022-12-29T18:49:41;8.00;99.90
52669;DHT22;59898;52.786;6.892;2022-12-29T18:53:01;8.00;99.90
52669;DHT22;59898;52.786;6.892;2022-12-29T18:56:22;8.10;99.90
52669;DHT22;59898;52.786;6.892;2022-12-29T18:59:43;8.10;99.90
52669;DHT22;59898;52.786;6.892;2022-12-29T19:03:04;8.10;99.90
52669;DHT22;59898;52.786;6.892;2022-12-29T19:06:25;8.10;99.90
52669;DHT22;59898;52.786;6.892;2022-12-29T19:09:46;8.20;99.90
52669;DHT22;59898;52.786;6.892;2022-12-29T19:13:08;8.00;99.90
52669;DHT22;59898;52.786;6.892;2022-12-29T19:16:33;8.00;99.90
52669;DHT22;59898;52.786;6.892;2022-12-29T19:19:54;8.00;99.90
52669;DHT22;59898;52.786;6.892;2022-12-29T19:23:17;8.00;99.90
52669;DHT22;59898;52.786;6.892;2022-12-29T19:26:38;7.90;99.90
52669;DHT22;59898;52.786;6.892;2022-12-29T19:29:59;7.90;99.90
52669;DHT22;59898;52.786;6.892;2022-12-29T19:33:20;7.80;99.90
52669;DHT22;59898;52.786;6.892;2022-12-29T19:36:43;7.80;99.90
52669;DHT22;59898;52.786;6.892;2022-12-29T19:40:07;7.70;99.90
52669;DHT22;59898;52.786;6.892;2022-12-29T19:43:29;7.70;99.90
52669;DHT22;59898;52.786;6.892;2022-12-29T19:46:49;7.70;99.90
52669;DHT22;59898;52.786;6.892;2022-12-29T19:50:13;7.70;99.90
52669;DHT22;59898;52.786;6.892;2022-12-29T19:53:35;7.70;99.90
52669;DHT22;59898;52.786;6.892;2022-12-29T19:56:55;7.70;99.90
52669;DHT22;59898;52.786;6.892;2022-12-29T20:00:16;7.70;99.90
52669;DHT22;59898;52.786;6.892;2022-12-29T20:03:37;7.70;99.90
52669;DHT22;59898;52.786;6.892;2022-12-29T20:06:58;7.70;99.90
52669;DHT22;59898;52.786;6.892;2022-12-29T20:10:19;7.70;99.90
52669;DHT22;59898;52.786;6.892;2022-12-29T20:13:40;7.70;99.90
52669;DHT22;59898;52.786;6.892;2022-12-29T20:17:01;7.70;99.90
52669;DHT22;59898;52.786;6.892;2022-12-29T20:20:22;7.70;99.90
52669;DHT22;59898;52.786;6.892;2022-12-29T20:23:43;7.70;99.90
52669;DHT22;59898;52.786;6.892;2022-12-29T20:27:06;7.70;99.90
52669;DHT22;59898;52.786;6.892;2022-12-29T20:30:28;7.70;99.90
52669;DHT22;59898;52.786;6.892;2022-12-29T20:33:49;7.70;99.90
52669;DHT22;59898;52.786;6.892;2022-12-29T20:37:10;7.70;99.90
52669;DHT22;59898;52.786;6.892;2022-12-29T20:40:31;7.70;99.90
52669;DHT22;59898;52.786;6.892;2022-12-29T20:43:52;7.70;99.90
52669;DHT22;59898;52.786;6.892;2022-12-29T20:47:13;7.70;99.90
52669;DHT22;59898;52.786;6.892;2022-12-29T20:50:33;7.70;99.90
52669;DHT22;59898;52.786;6.892;2022-12-29T20:53:54;7.60;99.90
52669;DHT22;59898;52.786;6.892;2022-12-29T20:57:15;7.60;99.90
52669;DHT22;59898;52.786;6.892;2022-12-29T21:00:36;7.50;99.90
52669;DHT22;59898;52.786;6.892;2022-12-29T21:03:57;7.50;99.90
52669;DHT22;59898;52.786;6.892;2022-12-29T21:07:17;7.40;99.90
52669;DHT22;59898;52.786;6.892;2022-12-29T21:10:38;7.50;99.90
52669;DHT22;59898;52.786;6.892;2022-12-29T21:13:59;7.40;99.90
52669;DHT22;59898;52.786;6.892;2022-12-29T21:17:20;7.40;99.90
52669;DHT22;59898;52.786;6.892;2022-12-29T21:20:40;7.40;99.90
52669;DHT22;59898;52.786;6.892;2022-12-29T21:24:01;7.40;99.90
52669;DHT22;59898;52.786;6.892;2022-12-29T21:27:24;7.40;99.90
52669;DHT22;59898;52.786;6.892;2022-12-29T21:30:46;7.40;99.90
52669;DHT22;59898;52.786;6.892;2022-12-29T21:34:08;7.40;99.90
52669;DHT22;59898;52.786;6.892;2022-12-29T21:37:29;7.40;99.90
52669;DHT22;59898;52.786;6.892;2022-12-29T21:40:49;7.40;99.90
52669;DHT22;59898;52.786;6.892;2022-12-29T21:44:10;7.40;99.90
52669;DHT22;59898;52.786;6.892;2022-12-29T21:47:50;7.30;99.90
52669;DHT22;59898;52.786;6.892;2022-12-29T21:51:29;7.30;99.90
52669;DHT22;59898;52.786;6.892;2022-12-29T21:55:08;7.20;99.90
52669;DHT22;59898;52.786;6.892;2022-12-29T21:58:29;7.20;99.90
52669;DHT22;59898;52.786;6.892;2022-12-29T22:02:25;7.20;99.90
52669;DHT22;59898;52.786;6.892;2022-12-29T22:06:09;7.20;99.90
52669;DHT22;59898;52.786;6.892;2022-12-29T22:09:50;7.20;99.90
52669;DHT22;59898;52.786;6.892;2022-12-29T22:13:32;7.20;99.90
52669;DHT22;59898;52.786;6.892;2022-12-29T22:16:53;7.20;99.90
52669;DHT22;59898;52.786;6.892;2022-12-29T22:20:13;7.20;99.90
52669;DHT22;59898;52.786;6.892;2022-12-29T22:23:35;7.10;99.90
52669;DHT22;59898;52.786;6.892;2022-12-29T22:26:56;7.20;99.90
52669;DHT22;59898;52.786;6.892;2022-12-29T22:30:17;7.20;99.90
52669;DHT22;59898;52.786;6.892;2022-12-29T22:33:38;7.10;99.90
52669;DHT22;59898;52.786;6.892;2022-12-29T22:36:59;7.10;99.90
52669;DHT22;59898;52.786;6.892;2022-12-29T22:40:19;7.10;99.90
52669;DHT22;59898;52.786;6.892;2022-12-29T22:43:40;7.20;99.90
52669;DHT22;59898;52.786;6.892;2022-12-29T22:47:01;7.10;99.90
52669;DHT22;59898;52.786;6.892;2022-12-29T22:50:22;7.10;99.90
52669;DHT22;59898;52.786;6.892;2022-12-29T22:53:42;7.10;99.90
52669;DHT22;59898;52.786;6.892;2022-12-29T22:57:04;7.10;99.90
52669;DHT22;59898;52.786;6.892;2022-12-29T23:00:25;7.10;99.90
52669;DHT22;59898;52.786;6.892;2022-12-29T23:03:46;7.10;99.90
52669;DHT22;59898;52.786;6.892;2022-12-29T23:07:06;7.30;99.90
52669;DHT22;59898;52.786;6.892;2022-12-29T23:10:27;7.00;99.90
52669;DHT22;59898;52.786;6.892;2022-12-29T23:13:48;7.10;99.90
52669;DHT22;59898;52.786;6.892;2022-12-29T23:17:08;7.10;99.90
52669;DHT22;59898;52.786;6.892;2022-12-29T23:20:29;7.10;99.90
52669;DHT22;59898;52.786;6.892;2022-12-29T23:23:50;7.10;99.90
52669;DHT22;59898;52.786;6.892;2022-12-29T23:27:13;7.10;99.90
52669;DHT22;59898;52.786;6.892;2022-12-29T23:30:34;7.10;99.90
52669;DHT22;59898;52.786;6.892;2022-12-29T23:33:55;7.10;99.90
52669;DHT22;59898;52.786;6.892;2022-12-29T23:37:16;7.10;99.90
52669;DHT22;59898;52.786;6.892;2022-12-29T23:40:37;7.10;99.90